sensor_id;sensor_type;location;lat;lon;timestamp;P1;durP1;ratioP1;P2;durP2;ratioP2
4428;SDS011;2227;47.810;8.810;2022-10-16T04:34:11;7.85;;;5.00;;
4428;SDS011;2227;47.810;8.810;2022-10-16T04:36:37;12.43;;;8.80;;
4428;SDS011;2227;47.810;8.810;2022-10-16T04:39:04;8.05;;;5.45;;
4428;SDS011;2227;47.810;8.810;2022-10-16T04:41:31;7.88;;;4.28;;
4428;SDS011;2227;47.810;8.810;2022-10-16T04:43:57;6.28;;;3.20;;
4428;SDS011;2227;47.810;8.810;2022-10-16T04:46:24;5.55;;;3.08;;
4428;SDS011;2227;47.810;8.810;2022-10-16T04:48:51;5.75;;;2.88;;
4428;SDS011;2227;47.810;8.810;2022-10-16T04:51:18;5.53;;;2.70;;
4428;SDS011;2227;47.810;8.810;2022-10-16T04:53:45;5.10;;;2.30;;
4428;SDS011;2227;47.810;8.810;2022-10-16T04:56:11;6.15;;;2.35;;
4428;SDS011;2227;47.810;8.810;2022-10-16T04:58:38;4.50;;;2.40;;
4428;SDS011;2227;47.810;8.810;2022-10-16T05:01:04;8.65;;;3.13;;
4428;SDS011;2227;47.810;8.810;2022-10-16T05:03:31;5.75;;;3.30;;
4428;SDS011;2227;47.810;8.810;2022-10-16T05:05:58;4.90;;;2.90;;
4428;SDS011;2227;47.810;8.810;2022-10-16T05:08:25;4.80;;;2.80;;
4428;SDS011;2227;47.810;8.810;2022-10-16T05:10:51;7.13;;;3.38;;
4428;SDS011;2227;47.810;8.810;2022-10-16T05:13:18;8.45;;;4.22;;
4428;SDS011;2227;47.810;8.810;2022-10-16T05:15:48;7.38;;;3.45;;
4428;SDS011;2227;47.810;8.810;2022-10-16T05:18:15;6.15;;;4.15;;
4428;SDS011;2227;47.810;8.810;2022-10-16T05:20:42;4.85;;;3.60;;
4428;SDS011;2227;47.810;8.810;2022-10-16T05:23:08;4.45;;;2.75;;
4428;SDS011;2227;47.810;8.810;2022-10-16T05:25:36;6.65;;;2.63;;
4428;SDS011;2227;47.810;8.810;2022-10-16T05:28:03;6.05;;;2.25;;
4428;SDS011;2227;47.810;8.810;2022-10-16T05:30:30;5.50;;;1.90;;
4428;SDS011;2227;47.810;8.810;2022-10-16T05:32:57;5.38;;;2.55;;
4428;SDS011;2227;47.810;8.810;2022-10-16T05:35:23;5.35;;;3.80;;
4428;SDS011;2227;47.810;8.810;2022-10-16T05:37:50;5.18;;;3.95;;
4428;SDS011;2227;47.810;8.810;2022-10-16T05:40:17;4.50;;;3.17;;
4428;SDS011;2227;47.810;8.810;2022-10-16T05:42:43;4.65;;;2.63;;
4428;SDS011;2227;47.810;8.810;2022-10-16T05:45:10;4.40;;;2.30;;
4428;SDS011;2227;47.810;8.810;2022-10-16T05:47:38;8.35;;;2.92;;
4428;SDS011;2227;47.810;8.810;2022-10-16T05:50:05;5.35;;;2.90;;
4428;SDS011;2227;47.810;8.810;2022-10-16T05:52:33;3.80;;;2.50;;
4428;SDS011;2227;47.810;8.810;2022-10-16T05:54:59;5.72;;;3.25;;
4428;SDS011;2227;47.810;8.810;2022-10-16T05:57:26;4.38;;;2.35;;
4428;SDS011;2227;47.810;8.810;2022-10-16T05:59:53;5.25;;;2.80;;
4428;SDS011;2227;47.810;8.810;2022-10-16T06:02:20;4.35;;;2.22;;
4428;SDS011;2227;47.810;8.810;2022-10-16T06:04:46;4.78;;;2.08;;
4428;SDS011;2227;47.810;8.810;2022-10-16T06:07:13;3.80;;;2.08;;
4428;SDS011;2227;47.810;8.810;2022-10-16T06:09:40;4.63;;;2.30;;
4428;SDS011;2227;47.810;8.810;2022-10-16T06:12:06;4.55;;;2.33;;
4428;SDS011;2227;47.810;8.810;2022-10-16T06:14:33;5.82;;;2.38;;
4428;SDS011;2227;47.810;8.810;2022-10-16T06:17:00;5.75;;;2.42;;
4428;SDS011;2227;47.810;8.810;2022-10-16T06:19:27;4.65;;;1.88;;
4428;SDS011;2227;47.810;8.810;2022-10-16T06:21:53;4.95;;;1.98;;
4428;SDS011;2227;47.810;8.810;2022-10-16T06:24:20;5.30;;;2.35;;
4428;SDS011;2227;47.810;8.810;2022-10-16T06:26:47;4.45;;;2.00;;
4428;SDS011;2227;47.810;8.810;2022-10-16T06:29:13;4.35;;;2.22;;
4428;SDS011;2227;47.810;8.810;2022-10-16T06:31:40;4.45;;;1.98;;
4428;SDS011;2227;47.810;8.810;2022-10-16T06:34:10;3.58;;;1.90;;
4428;SDS011;2227;47.810;8.810;2022-10-16T06:36:37;4.85;;;1.63;;
4428;SDS011;2227;47.810;8.810;2022-10-16T06:39:05;5.78;;;1.73;;
4428;SDS011;2227;47.810;8.810;2022-10-16T06:41:33;3.55;;;1.70;;
4428;SDS011;2227;47.810;8.810;2022-10-16T06:44:00;2.88;;;1.70;;
4428;SDS011;2227;47.810;8.810;2022-10-16T06:46:27;10.13;;;2.67;;
4428;SDS011;2227;47.810;8.810;2022-10-16T06:48:54;6.80;;;3.40;;
4428;SDS011;2227;47.810;8.810;2022-10-16T06:51:21;5.20;;;1.98;;
4428;SDS011;2227;47.810;8.810;2022-10-16T06:53:50;5.60;;;1.95;;
4428;SDS011;2227;47.810;8.810;2022-10-16T06:56:29;4.13;;;1.73;;
4428;SDS011;2227;47.810;8.810;2022-10-16T06:58:57;6.25;;;2.10;;
4428;SDS011;2227;47.810;8.810;2022-10-16T07:01:24;4.53;;;1.67;;
4428;SDS011;2227;47.810;8.810;2022-10-16T07:03:52;5.60;;;1.90;;
4428;SDS011;2227;47.810;8.810;2022-10-16T07:06:20;6.82;;;2.08;;
4428;SDS011;2227;47.810;8.810;2022-10-16T07:08:48;3.97;;;2.33;;
4428;SDS011;2227;47.810;8.810;2022-10-16T07:11:16;3.78;;;2.30;;
4428;SDS011;2227;47.810;8.810;2022-10-16T07:13:45;4.97;;;2.50;;
4428;SDS011;2227;47.810;8.810;2022-10-16T07:16:20;4.40;;;2.33;;
4428;SDS011;2227;47.810;8.810;2022-10-16T07:18:49;4.57;;;2.80;;
4428;SDS011;2227;47.810;8.810;2022-10-16T07:21:21;4.22;;;2.20;;
4428;SDS011;2227;47.810;8.810;2022-10-16T07:23:52;3.72;;;2.35;;
4428;SDS011;2227;47.810;8.810;2022-10-16T07:26:20;4.43;;;2.35;;
4428;SDS011;2227;47.810;8.810;2022-10-16T07:28:47;5.00;;;2.10;;
4428;SDS011;2227;47.810;8.810;2022-10-16T07:31:14;4.88;;;2.30;;
4428;SDS011;2227;47.810;8.810;2022-10-16T07:33:43;7.05;;;2.50;;
4428;SDS011;2227;47.810;8.810;2022-10-16T07:36:11;4.53;;;2.13;;
4428;SDS011;2227;47.810;8.810;2022-10-16T07:38:41;4.38;;;2.17;;
4428;SDS011;2227;47.810;8.810;2022-10-16T07:41:12;5.78;;;2.15;;
4428;SDS011;2227;47.810;8.810;2022-10-16T07:43:45;4.18;;;2.33;;
4428;SDS011;2227;47.810;8.810;2022-10-16T07:46:16;7.15;;;3.90;;
4428;SDS011;2227;47.810;8.810;2022-10-16T07:48:44;6.85;;;3.90;;
4428;SDS011;2227;47.810;8.810;2022-10-16T07:51:13;6.00;;;3.13;;
4428;SDS011;2227;47.810;8.810;2022-10-16T07:53:41;4.38;;;3.15;;
4428;SDS011;2227;47.810;8.810;2022-10-16T07:56:08;5.03;;;3.40;;
4428;SDS011;2227;47.810;8.810;2022-10-16T07:58:35;7.28;;;4.00;;
4428;SDS011;2227;47.810;8.810;2022-10-16T08:01:06;5.05;;;3.28;;
4428;SDS011;2227;47.810;8.810;2022-10-16T08:03:34;4.55;;;2.88;;
4428;SDS011;2227;47.810;8.810;2022-10-16T08:06:01;7.18;;;3.40;;
4428;SDS011;2227;47.810;8.810;2022-10-16T08:08:29;5.47;;;2.85;;
4428;SDS011;2227;47.810;8.810;2022-10-16T08:10:56;4.55;;;2.83;;
4428;SDS011;2227;47.810;8.810;2022-10-16T08:13:23;6.13;;;3.10;;
4428;SDS011;2227;47.810;8.810;2022-10-16T08:15:50;6.10;;;3.15;;
4428;SDS011;2227;47.810;8.810;2022-10-16T08:18:16;7.32;;;3.42;;
4428;SDS011;2227;47.810;8.810;2022-10-16T08:20:43;5.20;;;2.95;;
4428;SDS011;2227;47.810;8.810;2022-10-16T08:23:12;4.57;;;2.72;;
4428;SDS011;2227;47.810;8.810;2022-10-16T08:25:40;4.38;;;2.83;;
4428;SDS011;2227;47.810;8.810;2022-10-16T08:28:08;6.53;;;3.00;;
4428;SDS011;2227;47.810;8.810;2022-10-16T08:30:36;3.67;;;2.40;;
4428;SDS011;2227;47.810;8.810;2022-10-16T08:33:03;6.72;;;3.05;;
4428;SDS011;2227;47.810;8.810;2022-10-16T08:35:30;5.20;;;3.53;;
4428;SDS011;2227;47.810;8.810;2022-10-16T08:37:57;5.50;;;3.75;;
4428;SDS011;2227;47.810;8.810;2022-10-16T08:40:28;7.15;;;4.15;;
4428;SDS011;2227;47.810;8.810;2022-10-16T08:49:05;8.27;;;5.30;;
4428;SDS011;2227;47.810;8.810;2022-10-16T08:51:39;11.80;;;5.32;;
4428;SDS011;2227;47.810;8.810;2022-10-16T08:57:00;7.10;;;4.80;;
4428;SDS011;2227;47.810;8.810;2022-10-16T08:59:35;6.90;;;4.22;;
4428;SDS011;2227;47.810;8.810;2022-10-16T09:02:01;7.78;;;4.55;;
4428;SDS011;2227;47.810;8.810;2022-10-16T09:12:58;5.00;;;3.20;;
4428;SDS011;2227;47.810;8.810;2022-10-16T09:21:18;6.07;;;3.17;;
4428;SDS011;2227;47.810;8.810;2022-10-16T09:23:51;4.03;;;2.85;;
4428;SDS011;2227;47.810;8.810;2022-10-16T09:26:19;4.45;;;2.55;;
4428;SDS011;2227;47.810;8.810;2022-10-16T09:28:49;4.68;;;3.22;;
4428;SDS011;2227;47.810;8.810;2022-10-16T09:31:19;4.45;;;3.30;;
4428;SDS011;2227;47.810;8.810;2022-10-16T09:33:55;6.43;;;3.25;;
4428;SDS011;2227;47.810;8.810;2022-10-16T09:36:25;3.90;;;2.60;;
4428;SDS011;2227;47.810;8.810;2022-10-16T09:39:11;5.63;;;2.97;;
4428;SDS011;2227;47.810;8.810;2022-10-16T09:41:42;3.03;;;2.03;;
4428;SDS011;2227;47.810;8.810;2022-10-16T09:44:24;4.15;;;2.00;;
4428;SDS011;2227;47.810;8.810;2022-10-16T09:49:53;3.88;;;2.75;;
4428;SDS011;2227;47.810;8.810;2022-10-16T09:52:30;3.58;;;2.80;;
4428;SDS011;2227;47.810;8.810;2022-10-16T09:55:01;3.50;;;2.60;;
4428;SDS011;2227;47.810;8.810;2022-10-16T09:57:48;4.78;;;2.08;;
4428;SDS011;2227;47.810;8.810;2022-10-16T10:00:19;5.28;;;2.58;;
4428;SDS011;2227;47.810;8.810;2022-10-16T10:02:47;5.95;;;2.17;;
4428;SDS011;2227;47.810;8.810;2022-10-16T10:05:21;3.90;;;2.40;;
4428;SDS011;2227;47.810;8.810;2022-10-16T10:07:58;3.90;;;2.33;;
4428;SDS011;2227;47.810;8.810;2022-10-16T10:10:28;6.00;;;2.35;;
4428;SDS011;2227;47.810;8.810;2022-10-16T10:12:57;5.38;;;2.25;;
4428;SDS011;2227;47.810;8.810;2022-10-16T10:15:25;3.20;;;2.17;;
4428;SDS011;2227;47.810;8.810;2022-10-16T10:17:54;4.00;;;2.03;;
4428;SDS011;2227;47.810;8.810;2022-10-16T10:20:35;3.67;;;2.20;;
4428;SDS011;2227;47.810;8.810;2022-10-16T10:23:20;3.63;;;2.05;;
4428;SDS011;2227;47.810;8.810;2022-10-16T10:26:09;3.80;;;1.83;;
4428;SDS011;2227;47.810;8.810;2022-10-16T10:28:42;3.08;;;1.80;;
4428;SDS011;2227;47.810;8.810;2022-10-16T10:31:31;3.30;;;1.63;;
4428;SDS011;2227;47.810;8.810;2022-10-16T10:34:24;6.72;;;2.08;;
4428;SDS011;2227;47.810;8.810;2022-10-16T10:37:08;2.85;;;1.50;;
4428;SDS011;2227;47.810;8.810;2022-10-16T10:40:02;2.97;;;1.60;;
4428;SDS011;2227;47.810;8.810;2022-10-16T10:42:48;3.97;;;1.70;;
4428;SDS011;2227;47.810;8.810;2022-10-16T10:51:07;4.60;;;1.73;;
4428;SDS011;2227;47.810;8.810;2022-10-16T10:53:54;2.45;;;1.33;;
4428;SDS011;2227;47.810;8.810;2022-10-16T10:56:45;8.15;;;1.63;;
4428;SDS011;2227;47.810;8.810;2022-10-16T11:02:18;1.63;;;1.20;;
4428;SDS011;2227;47.810;8.810;2022-10-16T11:07:49;5.22;;;1.80;;
4428;SDS011;2227;47.810;8.810;2022-10-16T11:10:25;2.42;;;1.42;;
4428;SDS011;2227;47.810;8.810;2022-10-16T11:16:51;4.80;;;1.70;;
4428;SDS011;2227;47.810;8.810;2022-10-16T11:21:44;1.90;;;0.88;;
4428;SDS011;2227;47.810;8.810;2022-10-16T11:26:56;2.22;;;0.80;;
4428;SDS011;2227;47.810;8.810;2022-10-16T11:29:30;1.80;;;1.00;;
4428;SDS011;2227;47.810;8.810;2022-10-16T11:32:04;1.92;;;1.10;;
4428;SDS011;2227;47.810;8.810;2022-10-16T11:34:38;3.30;;;1.00;;
4428;SDS011;2227;47.810;8.810;2022-10-16T11:39:43;2.58;;;0.90;;
4428;SDS011;2227;47.810;8.810;2022-10-16T11:47:43;1.65;;;0.90;;
4428;SDS011;2227;47.810;8.810;2022-10-16T11:50:39;1.70;;;0.80;;
4428;SDS011;2227;47.810;8.810;2022-10-16T11:54:04;1.55;;;0.70;;
4428;SDS011;2227;47.810;8.810;2022-10-16T11:56:55;3.10;;;0.82;;
4428;SDS011;2227;47.810;8.810;2022-10-16T11:59:32;2.35;;;0.80;;
4428;SDS011;2227;47.810;8.810;2022-10-16T12:04:45;2.05;;;0.80;;
4428;SDS011;2227;47.810;8.810;2022-10-16T12:07:21;6.07;;;1.30;;
4428;SDS011;2227;47.810;8.810;2022-10-16T12:09:52;1.85;;;1.00;;
4428;SDS011;2227;47.810;8.810;2022-10-16T12:15:25;1.80;;;0.95;;
4428;SDS011;2227;47.810;8.810;2022-10-16T12:18:21;2.15;;;0.70;;
4428;SDS011;2227;47.810;8.810;2022-10-16T12:20:55;2.88;;;0.82;;
4428;SDS011;2227;47.810;8.810;2022-10-16T12:23:32;1.05;;;0.55;;
4428;SDS011;2227;47.810;8.810;2022-10-16T12:26:04;2.78;;;0.77;;
4428;SDS011;2227;47.810;8.810;2022-10-16T12:28:31;1.13;;;0.60;;
4428;SDS011;2227;47.810;8.810;2022-10-16T12:31:03;1.77;;;0.80;;
4428;SDS011;2227;47.810;8.810;2022-10-16T12:33:33;1.35;;;0.77;;
4428;SDS011;2227;47.810;8.810;2022-10-16T12:36:03;6.43;;;0.88;;
4428;SDS011;2227;47.810;8.810;2022-10-16T12:38:36;2.08;;;0.60;;
4428;SDS011;2227;47.810;8.810;2022-10-16T12:41:11;2.60;;;0.80;;
4428;SDS011;2227;47.810;8.810;2022-10-16T12:43:41;1.83;;;1.02;;
4428;SDS011;2227;47.810;8.810;2022-10-16T12:48:42;2.50;;;0.75;;
4428;SDS011;2227;47.810;8.810;2022-10-16T12:54:04;1.90;;;0.75;;
4428;SDS011;2227;47.810;8.810;2022-10-16T12:59:35;1.93;;;0.80;;
4428;SDS011;2227;47.810;8.810;2022-10-16T13:23:51;1.33;;;0.70;;
4428;SDS011;2227;47.810;8.810;2022-10-16T13:29:19;2.17;;;0.73;;
4428;SDS011;2227;47.810;8.810;2022-10-16T13:31:46;2.63;;;0.80;;
4428;SDS011;2227;47.810;8.810;2022-10-16T13:34:14;2.75;;;1.00;;
4428;SDS011;2227;47.810;8.810;2022-10-16T13:36:48;2.72;;;1.00;;
4428;SDS011;2227;47.810;8.810;2022-10-16T13:39:26;1.50;;;0.88;;
4428;SDS011;2227;47.810;8.810;2022-10-16T13:44:44;2.67;;;0.95;;
4428;SDS011;2227;47.810;8.810;2022-10-16T13:47:15;2.70;;;0.95;;
4428;SDS011;2227;47.810;8.810;2022-10-16T13:49:42;2.53;;;1.05;;
4428;SDS011;2227;47.810;8.810;2022-10-16T13:52:19;3.15;;;0.90;;
4428;SDS011;2227;47.810;8.810;2022-10-16T13:54:47;2.25;;;1.05;;
4428;SDS011;2227;47.810;8.810;2022-10-16T13:57:15;2.17;;;1.15;;
4428;SDS011;2227;47.810;8.810;2022-10-16T13:59:53;1.85;;;0.82;;
4428;SDS011;2227;47.810;8.810;2022-10-16T14:04:57;1.52;;;0.90;;
4428;SDS011;2227;47.810;8.810;2022-10-16T14:07:25;1.98;;;1.17;;
4428;SDS011;2227;47.810;8.810;2022-10-16T14:09:54;2.25;;;1.10;;
4428;SDS011;2227;47.810;8.810;2022-10-16T14:12:22;2.05;;;0.90;;
4428;SDS011;2227;47.810;8.810;2022-10-16T14:14:53;2.30;;;1.10;;
4428;SDS011;2227;47.810;8.810;2022-10-16T14:19:52;2.97;;;1.05;;
4428;SDS011;2227;47.810;8.810;2022-10-16T14:25:02;3.88;;;1.00;;
4428;SDS011;2227;47.810;8.810;2022-10-16T14:27:59;2.45;;;1.17;;
4428;SDS011;2227;47.810;8.810;2022-10-16T14:30:33;2.95;;;0.95;;
4428;SDS011;2227;47.810;8.810;2022-10-16T14:33:06;1.50;;;0.90;;
4428;SDS011;2227;47.810;8.810;2022-10-16T14:35:46;3.70;;;1.10;;
4428;SDS011;2227;47.810;8.810;2022-10-16T14:38:22;3.28;;;1.10;;
4428;SDS011;2227;47.810;8.810;2022-10-16T14:40:49;2.90;;;1.23;;
4428;SDS011;2227;47.810;8.810;2022-10-16T14:43:24;3.03;;;1.15;;
4428;SDS011;2227;47.810;8.810;2022-10-16T14:46:00;4.55;;;1.80;;
4428;SDS011;2227;47.810;8.810;2022-10-16T14:48:40;2.63;;;1.30;;
4428;SDS011;2227;47.810;8.810;2022-10-16T14:51:11;2.35;;;1.10;;
4428;SDS011;2227;47.810;8.810;2022-10-16T14:53:40;2.50;;;1.30;;
4428;SDS011;2227;47.810;8.810;2022-10-16T14:56:07;4.40;;;1.20;;
4428;SDS011;2227;47.810;8.810;2022-10-16T14:58:40;2.88;;;1.13;;
4428;SDS011;2227;47.810;8.810;2022-10-16T15:01:08;3.40;;;1.20;;
4428;SDS011;2227;47.810;8.810;2022-10-16T15:03:37;2.13;;;1.10;;
4428;SDS011;2227;47.810;8.810;2022-10-16T15:06:08;3.50;;;1.60;;
4428;SDS011;2227;47.810;8.810;2022-10-16T15:08:40;4.40;;;1.50;;
4428;SDS011;2227;47.810;8.810;2022-10-16T15:11:16;3.08;;;1.40;;
4428;SDS011;2227;47.810;8.810;2022-10-16T15:13:44;4.15;;;1.30;;
4428;SDS011;2227;47.810;8.810;2022-10-16T15:16:13;4.32;;;1.40;;
4428;SDS011;2227;47.810;8.810;2022-10-16T15:18:41;3.40;;;1.40;;
4428;SDS011;2227;47.810;8.810;2022-10-16T15:21:10;3.03;;;1.40;;
4428;SDS011;2227;47.810;8.810;2022-10-16T15:23:48;3.33;;;1.30;;
4428;SDS011;2227;47.810;8.810;2022-10-16T15:26:16;6.28;;;1.67;;
4428;SDS011;2227;47.810;8.810;2022-10-16T15:28:43;3.08;;;1.50;;
4428;SDS011;2227;47.810;8.810;2022-10-16T15:31:10;3.55;;;1.52;;
4428;SDS011;2227;47.810;8.810;2022-10-16T15:33:36;3.83;;;1.27;;
4428;SDS011;2227;47.810;8.810;2022-10-16T15:36:05;4.07;;;1.48;;
4428;SDS011;2227;47.810;8.810;2022-10-16T15:38:32;2.42;;;1.23;;
4428;SDS011;2227;47.810;8.810;2022-10-16T15:40:58;2.50;;;1.50;;
4428;SDS011;2227;47.810;8.810;2022-10-16T15:43:25;2.88;;;1.30;;
4428;SDS011;2227;47.810;8.810;2022-10-16T15:46:00;2.95;;;1.80;;
4428;SDS011;2227;47.810;8.810;2022-10-16T15:48:32;3.35;;;1.30;;
4428;SDS011;2227;47.810;8.810;2022-10-16T15:50:59;4.28;;;1.80;;
4428;SDS011;2227;47.810;8.810;2022-10-16T15:53:26;3.17;;;1.80;;
4428;SDS011;2227;47.810;8.810;2022-10-16T15:55:53;4.63;;;1.42;;
4428;SDS011;2227;47.810;8.810;2022-10-16T15:58:20;4.18;;;1.13;;
4428;SDS011;2227;47.810;8.810;2022-10-16T16:00:54;4.90;;;1.52;;
4428;SDS011;2227;47.810;8.810;2022-10-16T16:03:27;2.85;;;1.30;;
4428;SDS011;2227;47.810;8.810;2022-10-16T16:05:54;2.60;;;1.30;;
4428;SDS011;2227;47.810;8.810;2022-10-16T16:08:21;3.03;;;1.27;;
4428;SDS011;2227;47.810;8.810;2022-10-16T16:10:58;4.57;;;1.60;;
4428;SDS011;2227;47.810;8.810;2022-10-16T16:13:25;4.20;;;1.40;;
4428;SDS011;2227;47.810;8.810;2022-10-16T16:15:53;5.05;;;1.45;;
4428;SDS011;2227;47.810;8.810;2022-10-16T16:18:19;3.85;;;1.30;;
4428;SDS011;2227;47.810;8.810;2022-10-16T16:20:46;4.85;;;1.65;;
4428;SDS011;2227;47.810;8.810;2022-10-16T16:23:13;3.58;;;1.70;;
4428;SDS011;2227;47.810;8.810;2022-10-16T16:25:40;5.45;;;1.75;;
4428;SDS011;2227;47.810;8.810;2022-10-16T16:28:07;4.10;;;1.83;;
4428;SDS011;2227;47.810;8.810;2022-10-16T16:30:36;7.00;;;3.00;;
4428;SDS011;2227;47.810;8.810;2022-10-16T16:33:03;8.02;;;3.17;;
4428;SDS011;2227;47.810;8.810;2022-10-16T16:35:30;11.27;;;4.55;;
4428;SDS011;2227;47.810;8.810;2022-10-16T16:37:57;12.32;;;4.90;;
4428;SDS011;2227;47.810;8.810;2022-10-16T16:40:23;22.73;;;14.25;;
4428;SDS011;2227;47.810;8.810;2022-10-16T16:42:50;49.75;;;34.85;;
4428;SDS011;2227;47.810;8.810;2022-10-16T16:45:17;8.40;;;5.35;;
4428;SDS011;2227;47.810;8.810;2022-10-16T16:47:43;8.30;;;2.75;;
4428;SDS011;2227;47.810;8.810;2022-10-16T16:50:10;4.78;;;3.00;;
4428;SDS011;2227;47.810;8.810;2022-10-16T16:52:37;4.82;;;2.58;;
4428;SDS011;2227;47.810;8.810;2022-10-16T16:55:03;8.93;;;3.60;;
4428;SDS011;2227;47.810;8.810;2022-10-16T16:57:30;10.02;;;5.03;;
4428;SDS011;2227;47.810;8.810;2022-10-16T16:59:57;10.25;;;4.78;;
4428;SDS011;2227;47.810;8.810;2022-10-16T17:02:24;10.23;;;4.63;;
4428;SDS011;2227;47.810;8.810;2022-10-16T17:04:51;10.00;;;3.75;;
4428;SDS011;2227;47.810;8.810;2022-10-16T17:07:18;8.40;;;3.80;;
4428;SDS011;2227;47.810;8.810;2022-10-16T17:09:49;8.38;;;3.70;;
4428;SDS011;2227;47.810;8.810;2022-10-16T17:12:16;9.40;;;3.47;;
4428;SDS011;2227;47.810;8.810;2022-10-16T17:14:42;7.22;;;2.50;;
4428;SDS011;2227;47.810;8.810;2022-10-16T17:17:09;7.10;;;2.83;;
4428;SDS011;2227;47.810;8.810;2022-10-16T17:19:36;6.28;;;2.72;;
4428;SDS011;2227;47.810;8.810;2022-10-16T17:22:03;7.63;;;2.88;;
4428;SDS011;2227;47.810;8.810;2022-10-16T17:24:30;8.30;;;3.45;;
4428;SDS011;2227;47.810;8.810;2022-10-16T17:26:56;10.15;;;2.80;;
4428;SDS011;2227;47.810;8.810;2022-10-16T17:29:23;6.53;;;2.65;;
4428;SDS011;2227;47.810;8.810;2022-10-16T17:31:50;5.85;;;2.38;;
4428;SDS011;2227;47.810;8.810;2022-10-16T17:34:16;3.92;;;2.00;;
4428;SDS011;2227;47.810;8.810;2022-10-16T17:36:43;10.85;;;5.43;;
4428;SDS011;2227;47.810;8.810;2022-10-16T17:39:12;5.00;;;2.70;;
4428;SDS011;2227;47.810;8.810;2022-10-16T17:41:40;3.65;;;2.17;;
4428;SDS011;2227;47.810;8.810;2022-10-16T17:44:06;4.07;;;2.58;;
4428;SDS011;2227;47.810;8.810;2022-10-16T17:46:33;32.53;;;18.95;;
4428;SDS011;2227;47.810;8.810;2022-10-16T17:49:06;48.90;;;27.63;;
4428;SDS011;2227;47.810;8.810;2022-10-16T17:51:34;30.88;;;18.33;;
4428;SDS011;2227;47.810;8.810;2022-10-16T17:54:01;12.95;;;6.47;;
4428;SDS011;2227;47.810;8.810;2022-10-16T17:56:28;13.82;;;9.75;;
4428;SDS011;2227;47.810;8.810;2022-10-16T17:58:57;6.35;;;3.65;;
4428;SDS011;2227;47.810;8.810;2022-10-16T18:01:26;6.05;;;4.13;;
4428;SDS011;2227;47.810;8.810;2022-10-16T18:03:57;4.80;;;2.83;;
4428;SDS011;2227;47.810;8.810;2022-10-16T18:06:25;6.32;;;3.90;;
4428;SDS011;2227;47.810;8.810;2022-10-16T18:08:53;4.40;;;3.13;;
4428;SDS011;2227;47.810;8.810;2022-10-16T18:11:22;8.25;;;3.90;;
4428;SDS011;2227;47.810;8.810;2022-10-16T18:13:53;3.95;;;2.85;;
4428;SDS011;2227;47.810;8.810;2022-10-16T18:16:22;6.88;;;3.92;;
4428;SDS011;2227;47.810;8.810;2022-10-16T18:18:49;7.57;;;3.45;;
4428;SDS011;2227;47.810;8.810;2022-10-16T18:21:18;6.68;;;2.47;;
4428;SDS011;2227;47.810;8.810;2022-10-16T18:23:45;5.78;;;3.00;;
4428;SDS011;2227;47.810;8.810;2022-10-16T18:26:17;6.15;;;2.60;;
4428;SDS011;2227;47.810;8.810;2022-10-16T18:28:44;5.85;;;3.33;;
4428;SDS011;2227;47.810;8.810;2022-10-16T18:31:13;4.30;;;2.60;;
4428;SDS011;2227;47.810;8.810;2022-10-16T18:33:41;3.10;;;2.00;;
4428;SDS011;2227;47.810;8.810;2022-10-16T18:36:19;4.85;;;2.47;;
4428;SDS011;2227;47.810;8.810;2022-10-16T18:38:48;5.63;;;2.70;;
4428;SDS011;2227;47.810;8.810;2022-10-16T18:41:15;9.43;;;4.43;;
4428;SDS011;2227;47.810;8.810;2022-10-16T18:43:43;4.93;;;2.83;;
4428;SDS011;2227;47.810;8.810;2022-10-16T18:46:10;4.43;;;2.40;;
4428;SDS011;2227;47.810;8.810;2022-10-16T18:48:39;5.18;;;2.40;;
4428;SDS011;2227;47.810;8.810;2022-10-16T18:53:50;4.25;;;2.58;;
4428;SDS011;2227;47.810;8.810;2022-10-16T18:56:18;6.60;;;2.88;;
4428;SDS011;2227;47.810;8.810;2022-10-16T18:58:47;4.10;;;2.60;;
4428;SDS011;2227;47.810;8.810;2022-10-16T19:01:18;3.85;;;2.10;;
4428;SDS011;2227;47.810;8.810;2022-10-16T19:03:53;3.65;;;2.20;;
4428;SDS011;2227;47.810;8.810;2022-10-16T19:06:22;3.05;;;1.90;;
4428;SDS011;2227;47.810;8.810;2022-10-16T19:08:50;3.65;;;1.92;;
4428;SDS011;2227;47.810;8.810;2022-10-16T19:11:18;5.88;;;2.40;;
4428;SDS011;2227;47.810;8.810;2022-10-16T19:13:45;4.05;;;2.60;;
4428;SDS011;2227;47.810;8.810;2022-10-16T19:16:14;5.55;;;2.70;;
4428;SDS011;2227;47.810;8.810;2022-10-16T19:21:14;5.53;;;3.17;;
4428;SDS011;2227;47.810;8.810;2022-10-16T19:23:42;7.30;;;4.30;;
4428;SDS011;2227;47.810;8.810;2022-10-16T19:26:13;6.40;;;3.40;;
4428;SDS011;2227;47.810;8.810;2022-10-16T19:28:41;4.18;;;2.83;;
4428;SDS011;2227;47.810;8.810;2022-10-16T19:31:11;5.30;;;2.38;;
4428;SDS011;2227;47.810;8.810;2022-10-16T19:33:39;5.47;;;2.35;;
4428;SDS011;2227;47.810;8.810;2022-10-16T19:36:16;4.60;;;2.00;;
4428;SDS011;2227;47.810;8.810;2022-10-16T19:38:51;3.65;;;2.20;;
4428;SDS011;2227;47.810;8.810;2022-10-16T19:41:19;5.10;;;2.00;;
4428;SDS011;2227;47.810;8.810;2022-10-16T19:43:48;4.57;;;2.10;;
4428;SDS011;2227;47.810;8.810;2022-10-16T19:46:23;4.40;;;2.10;;
4428;SDS011;2227;47.810;8.810;2022-10-16T19:48:54;6.28;;;3.65;;
4428;SDS011;2227;47.810;8.810;2022-10-16T19:51:22;4.45;;;3.10;;
4428;SDS011;2227;47.810;8.810;2022-10-16T19:53:54;5.30;;;2.47;;
4428;SDS011;2227;47.810;8.810;2022-10-16T19:56:23;3.83;;;2.00;;
4428;SDS011;2227;47.810;8.810;2022-10-16T19:58:51;4.00;;;1.80;;
4428;SDS011;2227;47.810;8.810;2022-10-16T20:01:20;4.32;;;2.17;;
4428;SDS011;2227;47.810;8.810;2022-10-16T20:03:48;6.72;;;2.40;;
4428;SDS011;2227;47.810;8.810;2022-10-16T20:06:15;4.15;;;2.20;;
4428;SDS011;2227;47.810;8.810;2022-10-16T20:08:44;4.30;;;1.88;;
4428;SDS011;2227;47.810;8.810;2022-10-16T20:11:14;5.53;;;2.20;;
4428;SDS011;2227;47.810;8.810;2022-10-16T20:13:42;4.53;;;2.08;;
4428;SDS011;2227;47.810;8.810;2022-10-16T20:16:09;6.47;;;2.80;;
4428;SDS011;2227;47.810;8.810;2022-10-16T20:18:38;3.70;;;2.22;;
4428;SDS011;2227;47.810;8.810;2022-10-16T20:21:08;4.18;;;2.25;;
4428;SDS011;2227;47.810;8.810;2022-10-16T20:23:36;4.13;;;2.83;;
4428;SDS011;2227;47.810;8.810;2022-10-16T20:26:03;4.25;;;2.13;;
4428;SDS011;2227;47.810;8.810;2022-10-16T20:28:29;5.32;;;3.03;;
4428;SDS011;2227;47.810;8.810;2022-10-16T20:30:56;3.65;;;1.88;;
4428;SDS011;2227;47.810;8.810;2022-10-16T20:33:23;3.97;;;2.70;;
4428;SDS011;2227;47.810;8.810;2022-10-16T20:35:50;3.63;;;2.17;;
4428;SDS011;2227;47.810;8.810;2022-10-16T20:38:17;3.97;;;2.38;;
4428;SDS011;2227;47.810;8.810;2022-10-16T20:40:45;3.55;;;2.03;;
4428;SDS011;2227;47.810;8.810;2022-10-16T20:43:13;4.03;;;2.38;;
4428;SDS011;2227;47.810;8.810;2022-10-16T20:45:41;3.55;;;2.00;;
4428;SDS011;2227;47.810;8.810;2022-10-16T20:48:08;2.92;;;1.90;;
4428;SDS011;2227;47.810;8.810;2022-10-16T20:50:39;5.30;;;1.63;;
4428;SDS011;2227;47.810;8.810;2022-10-16T20:53:06;5.13;;;2.13;;
4428;SDS011;2227;47.810;8.810;2022-10-16T20:55:34;5.45;;;2.70;;
4428;SDS011;2227;47.810;8.810;2022-10-16T20:58:03;4.57;;;1.90;;
4428;SDS011;2227;47.810;8.810;2022-10-16T21:00:30;5.97;;;2.28;;
4428;SDS011;2227;47.810;8.810;2022-10-16T21:02:57;4.32;;;2.03;;
4428;SDS011;2227;47.810;8.810;2022-10-16T21:05:24;6.95;;;2.00;;
4428;SDS011;2227;47.810;8.810;2022-10-16T21:07:54;3.80;;;1.67;;
4428;SDS011;2227;47.810;8.810;2022-10-16T21:10:21;3.90;;;2.10;;
4428;SDS011;2227;47.810;8.810;2022-10-16T21:12:51;5.82;;;2.40;;
4428;SDS011;2227;47.810;8.810;2022-10-16T21:15:19;4.03;;;1.98;;
4428;SDS011;2227;47.810;8.810;2022-10-16T21:17:46;3.30;;;1.88;;
4428;SDS011;2227;47.810;8.810;2022-10-16T21:20:13;4.13;;;2.00;;
4428;SDS011;2227;47.810;8.810;2022-10-16T21:22:40;7.72;;;1.92;;
4428;SDS011;2227;47.810;8.810;2022-10-16T21:25:07;3.13;;;1.77;;
4428;SDS011;2227;47.810;8.810;2022-10-16T21:27:37;2.88;;;1.75;;
4428;SDS011;2227;47.810;8.810;2022-10-16T21:30:05;5.13;;;1.50;;
4428;SDS011;2227;47.810;8.810;2022-10-16T21:32:39;3.83;;;1.65;;
4428;SDS011;2227;47.810;8.810;2022-10-16T21:35:06;5.72;;;1.88;;
4428;SDS011;2227;47.810;8.810;2022-10-16T21:37:33;8.50;;;4.28;;
4428;SDS011;2227;47.810;8.810;2022-10-16T21:40:00;8.27;;;4.10;;
4428;SDS011;2227;47.810;8.810;2022-10-16T21:42:27;5.78;;;2.00;;
4428;SDS011;2227;47.810;8.810;2022-10-16T21:44:54;3.42;;;1.80;;
4428;SDS011;2227;47.810;8.810;2022-10-16T21:47:21;3.60;;;1.92;;
4428;SDS011;2227;47.810;8.810;2022-10-16T21:49:47;4.65;;;2.17;;
4428;SDS011;2227;47.810;8.810;2022-10-16T21:52:14;3.55;;;1.90;;
4428;SDS011;2227;47.810;8.810;2022-10-16T21:54:41;4.18;;;1.75;;